sensor_id;sensor_type;location;lat;lon;timestamp;P1;durP1;ratioP1;P2;durP2;ratioP2
9821;SDS011;4950;46.042;14.472;2023-08-01T00:00:07;6.28;;;2.72;;
9821;SDS011;4950;46.042;14.472;2023-08-01T00:02:34;8.13;;;3.28;;
9821;SDS011;4950;46.042;14.472;2023-08-01T00:05:01;5.70;;;2.78;;
9821;SDS011;4950;46.042;14.472;2023-08-01T00:07:27;5.25;;;3.17;;
9821;SDS011;4950;46.042;14.472;2023-08-01T00:09:54;7.38;;;3.20;;
9821;SDS011;4950;46.042;14.472;2023-08-01T00:12:21;8.70;;;3.00;;
9821;SDS011;4950;46.042;14.472;2023-08-01T00:14:49;7.38;;;3.53;;
9821;SDS011;4950;46.042;14.472;2023-08-01T00:17:18;4.63;;;2.80;;
9821;SDS011;4950;46.042;14.472;2023-08-01T00:19:44;9.30;;;3.10;;
9821;SDS011;4950;46.042;14.472;2023-08-01T00:22:11;4.38;;;2.63;;
9821;SDS011;4950;46.042;14.472;2023-08-01T00:24:37;5.65;;;2.80;;
9821;SDS011;4950;46.042;14.472;2023-08-01T00:27:04;7.15;;;3.05;;
9821;SDS011;4950;46.042;14.472;2023-08-01T00:29:34;6.45;;;3.15;;
9821;SDS011;4950;46.042;14.472;2023-08-01T00:32:00;4.95;;;2.88;;
9821;SDS011;4950;46.042;14.472;2023-08-01T00:34:28;6.80;;;2.75;;
9821;SDS011;4950;46.042;14.472;2023-08-01T00:36:56;9.13;;;3.37;;
9821;SDS011;4950;46.042;14.472;2023-08-01T00:39:23;6.47;;;3.08;;
9821;SDS011;4950;46.042;14.472;2023-08-01T00:41:49;10.32;;;3.58;;
9821;SDS011;4950;46.042;14.472;2023-08-01T00:44:16;9.82;;;3.00;;
9821;SDS011;4950;46.042;14.472;2023-08-01T00:46:43;6.05;;;3.00;;
9821;SDS011;4950;46.042;14.472;2023-08-01T00:49:10;7.65;;;3.67;;
9821;SDS011;4950;46.042;14.472;2023-08-01T00:51:39;7.07;;;3.25;;
9821;SDS011;4950;46.042;14.472;2023-08-01T00:54:05;6.95;;;3.33;;
9821;SDS011;4950;46.042;14.472;2023-08-01T00:56:32;8.55;;;3.60;;
9821;SDS011;4950;46.042;14.472;2023-08-01T00:58:59;8.05;;;3.28;;
9821;SDS011;4950;46.042;14.472;2023-08-01T01:01:26;6.63;;;3.92;;
9821;SDS011;4950;46.042;14.472;2023-08-01T01:03:53;7.38;;;3.55;;
9821;SDS011;4950;46.042;14.472;2023-08-01T01:06:20;6.13;;;3.67;;
9821;SDS011;4950;46.042;14.472;2023-08-01T01:08:52;5.00;;;3.17;;
9821;SDS011;4950;46.042;14.472;2023-08-01T01:11:20;5.60;;;3.38;;
9821;SDS011;4950;46.042;14.472;2023-08-01T01:13:47;5.68;;;3.45;;
9821;SDS011;4950;46.042;14.472;2023-08-01T01:16:13;5.72;;;3.50;;
9821;SDS011;4950;46.042;14.472;2023-08-01T01:18:40;9.88;;;3.58;;
9821;SDS011;4950;46.042;14.472;2023-08-01T01:21:08;6.90;;;3.88;;
9821;SDS011;4950;46.042;14.472;2023-08-01T01:23:35;9.38;;;3.85;;
9821;SDS011;4950;46.042;14.472;2023-08-01T01:26:03;7.55;;;3.40;;
9821;SDS011;4950;46.042;14.472;2023-08-01T01:28:32;6.22;;;3.80;;
9821;SDS011;4950;46.042;14.472;2023-08-01T01:31:00;7.55;;;3.83;;
9821;SDS011;4950;46.042;14.472;2023-08-01T01:33:27;7.97;;;3.58;;
9821;SDS011;4950;46.042;14.472;2023-08-01T01:35:54;8.10;;;3.80;;
9821;SDS011;4950;46.042;14.472;2023-08-01T01:38:22;5.55;;;3.53;;
9821;SDS011;4950;46.042;14.472;2023-08-01T01:40:49;7.83;;;3.37;;
9821;SDS011;4950;46.042;14.472;2023-08-01T01:43:15;5.72;;;3.30;;
9821;SDS011;4950;46.042;14.472;2023-08-01T01:45:42;6.43;;;3.17;;
9821;SDS011;4950;46.042;14.472;2023-08-01T01:48:09;6.30;;;3.10;;
9821;SDS011;4950;46.042;14.472;2023-08-01T01:50:35;7.32;;;3.00;;
9821;SDS011;4950;46.042;14.472;2023-08-01T01:53:02;8.75;;;3.60;;
9821;SDS011;4950;46.042;14.472;2023-08-01T01:55:30;8.23;;;3.22;;
9821;SDS011;4950;46.042;14.472;2023-08-01T01:57:57;9.80;;;3.33;;
9821;SDS011;4950;46.042;14.472;2023-08-01T02:00:23;5.88;;;3.00;;
9821;SDS011;4950;46.042;14.472;2023-08-01T02:02:50;6.75;;;2.97;;
9821;SDS011;4950;46.042;14.472;2023-08-01T02:05:16;7.18;;;2.90;;
9821;SDS011;4950;46.042;14.472;2023-08-01T02:07:43;5.38;;;2.97;;
9821;SDS011;4950;46.042;14.472;2023-08-01T02:10:10;6.38;;;2.67;;
9821;SDS011;4950;46.042;14.472;2023-08-01T02:12:38;7.75;;;2.97;;
9821;SDS011;4950;46.042;14.472;2023-08-01T02:15:05;7.57;;;3.50;;
9821;SDS011;4950;46.042;14.472;2023-08-01T02:17:32;6.00;;;3.00;;
9821;SDS011;4950;46.042;14.472;2023-08-01T02:19:59;6.25;;;2.97;;
9821;SDS011;4950;46.042;14.472;2023-08-01T02:22:25;8.50;;;3.15;;
9821;SDS011;4950;46.042;14.472;2023-08-01T02:24:52;4.40;;;2.67;;
9821;SDS011;4950;46.042;14.472;2023-08-01T02:27:19;5.60;;;3.40;;
9821;SDS011;4950;46.042;14.472;2023-08-01T02:29:47;7.93;;;3.40;;
9821;SDS011;4950;46.042;14.472;2023-08-01T02:32:15;5.40;;;2.80;;
9821;SDS011;4950;46.042;14.472;2023-08-01T02:34:41;5.68;;;2.70;;
9821;SDS011;4950;46.042;14.472;2023-08-01T02:37:08;4.95;;;3.03;;
9821;SDS011;4950;46.042;14.472;2023-08-01T02:39:34;6.38;;;2.92;;
9821;SDS011;4950;46.042;14.472;2023-08-01T02:42:01;12.88;;;3.70;;
9821;SDS011;4950;46.042;14.472;2023-08-01T02:44:28;5.60;;;2.80;;
9821;SDS011;4950;46.042;14.472;2023-08-01T02:46:56;9.15;;;2.97;;
9821;SDS011;4950;46.042;14.472;2023-08-01T02:49:23;9.13;;;2.53;;
9821;SDS011;4950;46.042;14.472;2023-08-01T02:51:50;11.48;;;3.38;;
9821;SDS011;4950;46.042;14.472;2023-08-01T02:54:16;4.88;;;2.85;;
9821;SDS011;4950;46.042;14.472;2023-08-01T02:56:43;4.80;;;2.75;;
9821;SDS011;4950;46.042;14.472;2023-08-01T02:59:10;8.35;;;2.58;;
9821;SDS011;4950;46.042;14.472;2023-08-01T03:01:37;8.00;;;3.53;;
9821;SDS011;4950;46.042;14.472;2023-08-01T03:04:06;8.60;;;2.97;;
9821;SDS011;4950;46.042;14.472;2023-08-01T03:06:33;7.20;;;3.10;;
9821;SDS011;4950;46.042;14.472;2023-08-01T03:09:00;7.05;;;2.90;;
9821;SDS011;4950;46.042;14.472;2023-08-01T03:11:26;5.53;;;3.13;;
9821;SDS011;4950;46.042;14.472;2023-08-01T03:13:53;10.43;;;3.10;;
9821;SDS011;4950;46.042;14.472;2023-08-01T03:16:20;6.45;;;2.88;;
9821;SDS011;4950;46.042;14.472;2023-08-01T03:18:46;5.68;;;2.88;;
9821;SDS011;4950;46.042;14.472;2023-08-01T03:21:14;6.07;;;3.10;;
9821;SDS011;4950;46.042;14.472;2023-08-01T03:23:41;7.53;;;2.88;;
9821;SDS011;4950;46.042;14.472;2023-08-01T03:26:08;5.68;;;3.10;;
9821;SDS011;4950;46.042;14.472;2023-08-01T03:28:35;6.95;;;3.35;;
9821;SDS011;4950;46.042;14.472;2023-08-01T03:31:01;7.43;;;3.10;;
9821;SDS011;4950;46.042;14.472;2023-08-01T03:33:28;7.82;;;3.17;;
9821;SDS011;4950;46.042;14.472;2023-08-01T03:35:55;8.27;;;2.90;;
9821;SDS011;4950;46.042;14.472;2023-08-01T03:38:23;4.82;;;2.70;;
9821;SDS011;4950;46.042;14.472;2023-08-01T03:40:50;5.23;;;2.77;;
9821;SDS011;4950;46.042;14.472;2023-08-01T03:43:16;9.27;;;3.10;;
9821;SDS011;4950;46.042;14.472;2023-08-01T03:45:48;7.05;;;3.45;;
9821;SDS011;4950;46.042;14.472;2023-08-01T03:48:15;6.72;;;3.00;;
9821;SDS011;4950;46.042;14.472;2023-08-01T03:50:41;6.20;;;3.25;;
9821;SDS011;4950;46.042;14.472;2023-08-01T03:53:08;8.65;;;2.95;;
9821;SDS011;4950;46.042;14.472;2023-08-01T03:55:36;8.63;;;3.22;;
9821;SDS011;4950;46.042;14.472;2023-08-01T03:58:03;7.28;;;2.78;;
9821;SDS011;4950;46.042;14.472;2023-08-01T04:00:29;11.07;;;2.85;;
9821;SDS011;4950;46.042;14.472;2023-08-01T04:02:57;5.90;;;3.13;;
9821;SDS011;4950;46.042;14.472;2023-08-01T04:05:24;8.65;;;3.55;;
9821;SDS011;4950;46.042;14.472;2023-08-01T04:07:50;6.70;;;2.80;;
9821;SDS011;4950;46.042;14.472;2023-08-01T04:10:19;6.38;;;3.17;;
9821;SDS011;4950;46.042;14.472;2023-08-01T04:12:47;5.53;;;3.20;;
9821;SDS011;4950;46.042;14.472;2023-08-01T04:15:14;5.53;;;2.77;;
9821;SDS011;4950;46.042;14.472;2023-08-01T04:17:41;6.22;;;3.10;;
9821;SDS011;4950;46.042;14.472;2023-08-01T04:20:08;9.70;;;2.75;;
9821;SDS011;4950;46.042;14.472;2023-08-01T04:22:34;8.43;;;3.60;;
9821;SDS011;4950;46.042;14.472;2023-08-01T04:25:01;9.48;;;3.55;;
9821;SDS011;4950;46.042;14.472;2023-08-01T04:27:28;6.68;;;3.40;;
9821;SDS011;4950;46.042;14.472;2023-08-01T04:29:56;6.00;;;3.45;;
9821;SDS011;4950;46.042;14.472;2023-08-01T04:32:22;6.68;;;3.38;;
9821;SDS011;4950;46.042;14.472;2023-08-01T04:34:49;9.65;;;3.75;;
9821;SDS011;4950;46.042;14.472;2023-08-01T04:37:16;7.22;;;3.47;;
9821;SDS011;4950;46.042;14.472;2023-08-01T04:39:45;13.27;;;4.00;;
9821;SDS011;4950;46.042;14.472;2023-08-01T04:42:12;13.65;;;4.30;;
9821;SDS011;4950;46.042;14.472;2023-08-01T04:44:38;7.18;;;4.68;;
9821;SDS011;4950;46.042;14.472;2023-08-01T04:47:06;8.75;;;4.55;;
9821;SDS011;4950;46.042;14.472;2023-08-01T04:49:33;8.38;;;4.70;;
9821;SDS011;4950;46.042;14.472;2023-08-01T04:52:00;7.85;;;4.40;;
9821;SDS011;4950;46.042;14.472;2023-08-01T04:54:26;7.15;;;4.50;;
9821;SDS011;4950;46.042;14.472;2023-08-01T04:56:53;8.98;;;4.32;;
9821;SDS011;4950;46.042;14.472;2023-08-01T04:59:19;6.88;;;4.40;;
9821;SDS011;4950;46.042;14.472;2023-08-01T05:01:47;8.27;;;4.85;;
9821;SDS011;4950;46.042;14.472;2023-08-01T05:04:15;9.68;;;5.18;;
9821;SDS011;4950;46.042;14.472;2023-08-01T05:06:42;12.43;;;5.97;;
9821;SDS011;4950;46.042;14.472;2023-08-01T05:09:08;12.93;;;5.50;;
9821;SDS011;4950;46.042;14.472;2023-08-01T05:11:35;8.48;;;5.45;;
9821;SDS011;4950;46.042;14.472;2023-08-01T05:14:02;8.38;;;5.00;;
9821;SDS011;4950;46.042;14.472;2023-08-01T05:16:28;8.73;;;5.07;;
9821;SDS011;4950;46.042;14.472;2023-08-01T05:18:55;15.82;;;5.55;;
9821;SDS011;4950;46.042;14.472;2023-08-01T05:21:23;12.75;;;5.32;;
9821;SDS011;4950;46.042;14.472;2023-08-01T05:23:50;9.85;;;5.15;;
9821;SDS011;4950;46.042;14.472;2023-08-01T05:26:17;11.15;;;5.45;;
9821;SDS011;4950;46.042;14.472;2023-08-01T05:28:43;8.95;;;4.80;;
9821;SDS011;4950;46.042;14.472;2023-08-01T05:31:10;11.73;;;4.93;;
9821;SDS011;4950;46.042;14.472;2023-08-01T05:33:36;10.48;;;5.57;;
9821;SDS011;4950;46.042;14.472;2023-08-01T05:36:03;9.60;;;4.70;;
9821;SDS011;4950;46.042;14.472;2023-08-01T05:38:31;9.10;;;4.95;;
9821;SDS011;4950;46.042;14.472;2023-08-01T05:40:58;10.15;;;4.93;;
9821;SDS011;4950;46.042;14.472;2023-08-01T05:43:24;8.23;;;4.00;;
9821;SDS011;4950;46.042;14.472;2023-08-01T05:45:51;12.13;;;4.63;;
9821;SDS011;4950;46.042;14.472;2023-08-01T05:48:18;6.88;;;4.03;;
9821;SDS011;4950;46.042;14.472;2023-08-01T05:50:44;11.95;;;5.10;;
9821;SDS011;4950;46.042;14.472;2023-08-01T05:53:11;7.13;;;4.80;;
9821;SDS011;4950;46.042;14.472;2023-08-01T05:55:39;6.45;;;4.68;;
9821;SDS011;4950;46.042;14.472;2023-08-01T05:58:06;10.07;;;4.90;;
9821;SDS011;4950;46.042;14.472;2023-08-01T06:00:32;8.57;;;5.15;;
9821;SDS011;4950;46.042;14.472;2023-08-01T06:02:59;9.50;;;4.93;;
9821;SDS011;4950;46.042;14.472;2023-08-01T06:05:26;9.65;;;5.03;;
9821;SDS011;4950;46.042;14.472;2023-08-01T06:07:53;7.65;;;5.10;;
9821;SDS011;4950;46.042;14.472;2023-08-01T06:10:19;8.30;;;4.40;;
9821;SDS011;4950;46.042;14.472;2023-08-01T06:12:47;7.22;;;4.65;;
9821;SDS011;4950;46.042;14.472;2023-08-01T06:15:14;10.95;;;5.88;;
9821;SDS011;4950;46.042;14.472;2023-08-01T06:17:40;6.53;;;4.70;;
9821;SDS011;4950;46.042;14.472;2023-08-01T06:20:07;7.75;;;5.10;;
9821;SDS011;4950;46.042;14.472;2023-08-01T06:22:35;7.40;;;5.60;;
9821;SDS011;4950;46.042;14.472;2023-08-01T06:25:02;11.48;;;5.57;;
9821;SDS011;4950;46.042;14.472;2023-08-01T06:27:29;8.25;;;5.97;;
9821;SDS011;4950;46.042;14.472;2023-08-01T06:29:57;9.45;;;6.07;;
9821;SDS011;4950;46.042;14.472;2023-08-01T06:32:23;7.75;;;5.50;;
9821;SDS011;4950;46.042;14.472;2023-08-01T06:34:50;12.38;;;6.13;;
9821;SDS011;4950;46.042;14.472;2023-08-01T06:37:16;9.65;;;5.95;;
9821;SDS011;4950;46.042;14.472;2023-08-01T06:39:43;9.57;;;6.18;;
9821;SDS011;4950;46.042;14.472;2023-08-01T06:42:10;9.65;;;5.95;;
9821;SDS011;4950;46.042;14.472;2023-08-01T06:44:37;9.32;;;6.30;;
9821;SDS011;4950;46.042;14.472;2023-08-01T06:47:05;9.65;;;5.80;;
9821;SDS011;4950;46.042;14.472;2023-08-01T06:49:32;10.30;;;6.00;;
9821;SDS011;4950;46.042;14.472;2023-08-01T06:51:58;10.85;;;6.18;;
9821;SDS011;4950;46.042;14.472;2023-08-01T06:54:25;10.63;;;5.75;;
9821;SDS011;4950;46.042;14.472;2023-08-01T06:56:52;10.32;;;5.93;;
9821;SDS011;4950;46.042;14.472;2023-08-01T06:59:18;8.00;;;5.75;;
9821;SDS011;4950;46.042;14.472;2023-08-01T07:01:45;9.25;;;5.38;;
9821;SDS011;4950;46.042;14.472;2023-08-01T07:04:13;8.88;;;5.88;;
9821;SDS011;4950;46.042;14.472;2023-08-01T07:06:40;8.20;;;5.55;;
9821;SDS011;4950;46.042;14.472;2023-08-01T07:09:06;10.90;;;5.60;;
9821;SDS011;4950;46.042;14.472;2023-08-01T07:11:33;10.68;;;4.75;;
9821;SDS011;4950;46.042;14.472;2023-08-01T07:14:00;8.57;;;5.13;;
9821;SDS011;4950;46.042;14.472;2023-08-01T07:16:26;6.53;;;4.32;;
9821;SDS011;4950;46.042;14.472;2023-08-01T07:18:54;6.72;;;4.30;;
9821;SDS011;4950;46.042;14.472;2023-08-01T07:21:22;9.73;;;4.97;;
9821;SDS011;4950;46.042;14.472;2023-08-01T07:23:49;7.82;;;4.70;;
9821;SDS011;4950;46.042;14.472;2023-08-01T07:26:15;11.48;;;4.50;;
9821;SDS011;4950;46.042;14.472;2023-08-01T07:28:42;10.20;;;4.10;;
9821;SDS011;4950;46.042;14.472;2023-08-01T07:31:09;10.55;;;4.38;;
9821;SDS011;4950;46.042;14.472;2023-08-01T07:33:35;5.93;;;3.88;;
9821;SDS011;4950;46.042;14.472;2023-08-01T07:36:03;7.53;;;4.32;;
9821;SDS011;4950;46.042;14.472;2023-08-01T07:38:31;7.22;;;4.03;;
9821;SDS011;4950;46.042;14.472;2023-08-01T07:41:01;8.83;;;4.50;;
9821;SDS011;4950;46.042;14.472;2023-08-01T07:43:29;8.50;;;3.78;;
9821;SDS011;4950;46.042;14.472;2023-08-01T07:45:56;7.25;;;4.22;;
9821;SDS011;4950;46.042;14.472;2023-08-01T07:48:23;7.13;;;3.60;;
9821;SDS011;4950;46.042;14.472;2023-08-01T07:50:50;7.80;;;3.83;;
9821;SDS011;4950;46.042;14.472;2023-08-01T07:53:16;11.80;;;3.83;;
9821;SDS011;4950;46.042;14.472;2023-08-01T07:55:44;7.68;;;3.30;;
9821;SDS011;4950;46.042;14.472;2023-08-01T07:58:11;7.30;;;3.37;;
9821;SDS011;4950;46.042;14.472;2023-08-01T08:00:38;5.75;;;3.78;;
9821;SDS011;4950;46.042;14.472;2023-08-01T08:03:04;6.97;;;3.13;;
9821;SDS011;4950;46.042;14.472;2023-08-01T08:05:33;10.15;;;3.53;;
9821;SDS011;4950;46.042;14.472;2023-08-01T08:08:03;5.75;;;3.40;;
9821;SDS011;4950;46.042;14.472;2023-08-01T08:10:30;5.32;;;3.30;;
9821;SDS011;4950;46.042;14.472;2023-08-01T08:12:58;5.18;;;2.92;;
9821;SDS011;4950;46.042;14.472;2023-08-01T08:15:25;5.60;;;3.73;;
9821;SDS011;4950;46.042;14.472;2023-08-01T08:17:51;5.72;;;3.30;;
9821;SDS011;4950;46.042;14.472;2023-08-01T08:20:18;9.32;;;3.40;;
9821;SDS011;4950;46.042;14.472;2023-08-01T08:22:45;5.07;;;3.22;;
9821;SDS011;4950;46.042;14.472;2023-08-01T08:25:11;6.28;;;3.28;;
9821;SDS011;4950;46.042;14.472;2023-08-01T08:27:38;7.05;;;3.50;;
9821;SDS011;4950;46.042;14.472;2023-08-01T08:30:07;5.38;;;3.40;;
9821;SDS011;4950;46.042;14.472;2023-08-01T08:32:34;10.80;;;3.40;;
9821;SDS011;4950;46.042;14.472;2023-08-01T08:35:01;7.22;;;3.33;;
9821;SDS011;4950;46.042;14.472;2023-08-01T08:37:28;6.95;;;3.40;;
9821;SDS011;4950;46.042;14.472;2023-08-01T08:39:54;5.63;;;3.20;;
9821;SDS011;4950;46.042;14.472;2023-08-01T08:42:21;7.75;;;3.55;;
9821;SDS011;4950;46.042;14.472;2023-08-01T08:44:49;6.43;;;3.60;;
9821;SDS011;4950;46.042;14.472;2023-08-01T08:47:22;10.63;;;3.50;;
9821;SDS011;4950;46.042;14.472;2023-08-01T08:49:51;7.53;;;3.97;;
9821;SDS011;4950;46.042;14.472;2023-08-01T08:52:18;8.25;;;3.42;;
9821;SDS011;4950;46.042;14.472;2023-08-01T08:54:46;6.13;;;3.00;;
9821;SDS011;4950;46.042;14.472;2023-08-01T08:57:13;7.10;;;3.63;;
9821;SDS011;4950;46.042;14.472;2023-08-01T08:59:40;8.27;;;3.70;;
9821;SDS011;4950;46.042;14.472;2023-08-01T09:02:07;7.28;;;3.80;;
9821;SDS011;4950;46.042;14.472;2023-08-01T09:04:35;12.23;;;3.90;;
9821;SDS011;4950;46.042;14.472;2023-08-01T09:07:02;8.13;;;3.45;;
9821;SDS011;4950;46.042;14.472;2023-08-01T09:09:34;9.13;;;4.18;;
9821;SDS011;4950;46.042;14.472;2023-08-01T09:12:01;15.57;;;5.05;;
9821;SDS011;4950;46.042;14.472;2023-08-01T09:14:29;11.13;;;5.03;;
9821;SDS011;4950;46.042;14.472;2023-08-01T09:17:04;10.70;;;4.97;;
9821;SDS011;4950;46.042;14.472;2023-08-01T09:19:32;14.95;;;4.35;;
9821;SDS011;4950;46.042;14.472;2023-08-01T09:22:00;11.02;;;4.30;;
9821;SDS011;4950;46.042;14.472;2023-08-01T09:24:27;14.02;;;5.38;;
9821;SDS011;4950;46.042;14.472;2023-08-01T09:27:01;11.75;;;5.25;;
9821;SDS011;4950;46.042;14.472;2023-08-01T09:29:29;14.63;;;4.30;;
9821;SDS011;4950;46.042;14.472;2023-08-01T09:31:56;16.52;;;4.70;;
9821;SDS011;4950;46.042;14.472;2023-08-01T09:34:24;9.00;;;4.30;;
9821;SDS011;4950;46.042;14.472;2023-08-01T09:39:25;11.77;;;4.18;;
9821;SDS011;4950;46.042;14.472;2023-08-01T09:41:55;13.52;;;4.50;;
9821;SDS011;4950;46.042;14.472;2023-08-01T09:44:22;9.20;;;4.00;;
9821;SDS011;4950;46.042;14.472;2023-08-01T09:46:54;10.20;;;3.85;;
9821;SDS011;4950;46.042;14.472;2023-08-01T09:49:22;10.43;;;4.75;;
9821;SDS011;4950;46.042;14.472;2023-08-01T09:51:49;18.30;;;4.78;;
9821;SDS011;4950;46.042;14.472;2023-08-01T09:54:17;7.70;;;3.80;;
9821;SDS011;4950;46.042;14.472;2023-08-01T09:56:46;10.20;;;3.92;;
9821;SDS011;4950;46.042;14.472;2023-08-01T09:59:16;8.52;;;4.28;;
9821;SDS011;4950;46.042;14.472;2023-08-01T10:01:46;7.95;;;3.75;;
9821;SDS011;4950;46.042;14.472;2023-08-01T10:04:15;9.35;;;3.70;;
9821;SDS011;4950;46.042;14.472;2023-08-01T10:06:43;10.15;;;3.83;;
9821;SDS011;4950;46.042;14.472;2023-08-01T10:09:12;14.65;;;4.57;;
9821;SDS011;4950;46.042;14.472;2023-08-01T10:11:40;9.05;;;4.47;;
9821;SDS011;4950;46.042;14.472;2023-08-01T10:14:09;14.10;;;4.75;;
9821;SDS011;4950;46.042;14.472;2023-08-01T10:16:36;10.35;;;4.20;;
9821;SDS011;4950;46.042;14.472;2023-08-01T10:19:04;7.97;;;4.15;;
9821;SDS011;4950;46.042;14.472;2023-08-01T10:21:32;16.27;;;5.10;;
9821;SDS011;4950;46.042;14.472;2023-08-01T10:23:59;9.55;;;4.45;;
9821;SDS011;4950;46.042;14.472;2023-08-01T10:26:28;12.55;;;4.60;;
9821;SDS011;4950;46.042;14.472;2023-08-01T10:28:55;8.32;;;4.80;;
9821;SDS011;4950;46.042;14.472;2023-08-01T10:31:25;8.57;;;4.53;;
9821;SDS011;4950;46.042;14.472;2023-08-01T10:33:52;7.78;;;4.20;;
9821;SDS011;4950;46.042;14.472;2023-08-01T10:36:19;6.63;;;3.88;;
9821;SDS011;4950;46.042;14.472;2023-08-01T10:38:47;8.50;;;4.82;;
9821;SDS011;4950;46.042;14.472;2023-08-01T10:41:18;18.15;;;5.03;;
9821;SDS011;4950;46.042;14.472;2023-08-01T10:43:46;9.23;;;4.65;;
9821;SDS011;4950;46.042;14.472;2023-08-01T10:46:12;9.13;;;4.80;;
9821;SDS011;4950;46.042;14.472;2023-08-01T10:48:48;10.82;;;4.30;;
9821;SDS011;4950;46.042;14.472;2023-08-01T10:51:16;11.52;;;4.00;;
9821;SDS011;4950;46.042;14.472;2023-08-01T10:53:43;5.85;;;3.90;;
9821;SDS011;4950;46.042;14.472;2023-08-01T10:56:15;7.53;;;3.35;;
9821;SDS011;4950;46.042;14.472;2023-08-01T10:58:43;8.00;;;3.08;;
9821;SDS011;4950;46.042;14.472;2023-08-01T11:01:10;9.10;;;3.40;;
9821;SDS011;4950;46.042;14.472;2023-08-01T11:03:36;8.93;;;4.25;;
9821;SDS011;4950;46.042;14.472;2023-08-01T11:06:05;7.45;;;3.38;;
9821;SDS011;4950;46.042;14.472;2023-08-01T11:08:35;10.07;;;3.45;;
9821;SDS011;4950;46.042;14.472;2023-08-01T11:11:03;7.03;;;2.83;;
9821;SDS011;4950;46.042;14.472;2023-08-01T11:13:31;8.13;;;2.95;;
9821;SDS011;4950;46.042;14.472;2023-08-01T11:16:00;11.07;;;3.47;;
9821;SDS011;4950;46.042;14.472;2023-08-01T11:18:28;6.38;;;3.20;;
9821;SDS011;4950;46.042;14.472;2023-08-01T11:20:55;8.38;;;3.53;;
9821;SDS011;4950;46.042;14.472;2023-08-01T11:23:28;4.78;;;3.30;;
9821;SDS011;4950;46.042;14.472;2023-08-01T11:25:55;9.55;;;3.42;;
9821;SDS011;4950;46.042;14.472;2023-08-01T11:28:22;11.90;;;3.88;;
9821;SDS011;4950;46.042;14.472;2023-08-01T11:30:49;7.90;;;3.60;;
9821;SDS011;4950;46.042;14.472;2023-08-01T11:33:18;6.95;;;3.95;;
9821;SDS011;4950;46.042;14.472;2023-08-01T11:35:46;13.13;;;4.25;;
9821;SDS011;4950;46.042;14.472;2023-08-01T11:38:17;7.57;;;3.50;;
9821;SDS011;4950;46.042;14.472;2023-08-01T11:40:45;9.38;;;3.60;;
9821;SDS011;4950;46.042;14.472;2023-08-01T11:43:14;7.80;;;3.90;;
9821;SDS011;4950;46.042;14.472;2023-08-01T11:45:47;4.85;;;3.35;;
9821;SDS011;4950;46.042;14.472;2023-08-01T11:48:15;9.13;;;3.67;;
9821;SDS011;4950;46.042;14.472;2023-08-01T11:50:41;8.18;;;3.53;;
9821;SDS011;4950;46.042;14.472;2023-08-01T11:53:17;5.50;;;3.17;;
9821;SDS011;4950;46.042;14.472;2023-08-01T11:55:45;10.25;;;4.40;;
9821;SDS011;4950;46.042;14.472;2023-08-01T11:58:12;9.75;;;3.70;;
9821;SDS011;4950;46.042;14.472;2023-08-01T12:00:39;9.45;;;3.75;;
9821;SDS011;4950;46.042;14.472;2023-08-01T12:03:06;6.45;;;3.45;;
9821;SDS011;4950;46.042;14.472;2023-08-01T12:05:37;8.13;;;3.95;;
9821;SDS011;4950;46.042;14.472;2023-08-01T12:08:09;6.25;;;4.10;;
9821;SDS011;4950;46.042;14.472;2023-08-01T12:10:37;7.15;;;3.78;;
9821;SDS011;4950;46.042;14.472;2023-08-01T12:13:05;6.95;;;3.60;;
9821;SDS011;4950;46.042;14.472;2023-08-01T12:15:32;7.70;;;3.97;;
9821;SDS011;4950;46.042;14.472;2023-08-01T12:17:59;6.40;;;3.55;;
9821;SDS011;4950;46.042;14.472;2023-08-01T12:20:25;9.00;;;3.50;;
9821;SDS011;4950;46.042;14.472;2023-08-01T12:22:52;11.60;;;4.28;;
9821;SDS011;4950;46.042;14.472;2023-08-01T12:25:19;7.35;;;4.20;;
9821;SDS011;4950;46.042;14.472;2023-08-01T12:27:45;9.43;;;3.63;;
9821;SDS011;4950;46.042;14.472;2023-08-01T12:30:13;7.93;;;3.70;;
9821;SDS011;4950;46.042;14.472;2023-08-01T12:32:40;7.38;;;3.30;;
9821;SDS011;4950;46.042;14.472;2023-08-01T12:35:07;6.97;;;3.60;;
9821;SDS011;4950;46.042;14.472;2023-08-01T12:37:34;7.78;;;3.80;;
9821;SDS011;4950;46.042;14.472;2023-08-01T12:40:01;6.28;;;3.17;;
9821;SDS011;4950;46.042;14.472;2023-08-01T12:42:29;7.93;;;3.45;;
9821;SDS011;4950;46.042;14.472;2023-08-01T12:44:57;5.55;;;3.67;;
9821;SDS011;4950;46.042;14.472;2023-08-01T12:47:25;6.85;;;3.85;;
9821;SDS011;4950;46.042;14.472;2023-08-01T12:49:52;6.20;;;3.70;;
9821;SDS011;4950;46.042;14.472;2023-08-01T12:52:22;10.55;;;3.20;;
9821;SDS011;4950;46.042;14.472;2023-08-01T12:54:49;8.35;;;3.00;;
9821;SDS011;4950;46.042;14.472;2023-08-01T12:57:16;4.88;;;2.60;;
9821;SDS011;4950;46.042;14.472;2023-08-01T12:59:43;6.03;;;3.40;;
9821;SDS011;4950;46.042;14.472;2023-08-01T13:02:10;9.48;;;3.63;;
9821;SDS011;4950;46.042;14.472;2023-08-01T13:04:38;6.60;;;3.40;;
9821;SDS011;4950;46.042;14.472;2023-08-01T13:07:04;10.65;;;3.80;;
9821;SDS011;4950;46.042;14.472;2023-08-01T13:09:31;7.85;;;4.15;;
9821;SDS011;4950;46.042;14.472;2023-08-01T13:11:58;6.18;;;3.60;;
9821;SDS011;4950;46.042;14.472;2023-08-01T13:14:25;4.90;;;3.05;;
9821;SDS011;4950;46.042;14.472;2023-08-01T13:16:52;6.43;;;3.10;;
9821;SDS011;4950;46.042;14.472;2023-08-01T13:19:19;6.88;;;3.08;;
9821;SDS011;4950;46.042;14.472;2023-08-01T13:21:47;4.57;;;2.80;;
9821;SDS011;4950;46.042;14.472;2023-08-01T13:24:13;6.82;;;3.50;;
9821;SDS011;4950;46.042;14.472;2023-08-01T13:26:40;6.65;;;2.60;;
9821;SDS011;4950;46.042;14.472;2023-08-01T13:29:06;4.90;;;2.63;;
9821;SDS011;4950;46.042;14.472;2023-08-01T13:31:33;5.70;;;3.00;;
9821;SDS011;4950;46.042;14.472;2023-08-01T13:34:00;7.80;;;3.20;;
9821;SDS011;4950;46.042;14.472;2023-08-01T13:36:26;9.32;;;3.10;;
9821;SDS011;4950;46.042;14.472;2023-08-01T13:38:54;6.95;;;3.00;;
9821;SDS011;4950;46.042;14.472;2023-08-01T13:41:21;8.60;;;3.75;;
9821;SDS011;4950;46.042;14.472;2023-08-01T13:43:47;7.50;;;3.17;;
9821;SDS011;4950;46.042;14.472;2023-08-01T13:46:15;11.80;;;3.90;;
9821;SDS011;4950;46.042;14.472;2023-08-01T13:48:43;7.75;;;3.40;;
9821;SDS011;4950;46.042;14.472;2023-08-01T13:51:10;10.43;;;3.58;;
9821;SDS011;4950;46.042;14.472;2023-08-01T13:53:37;10.27;;;3.47;;
9821;SDS011;4950;46.042;14.472;2023-08-01T13:56:07;10.40;;;3.45;;
9821;SDS011;4950;46.042;14.472;2023-08-01T13:58:34;8.13;;;3.30;;
9821;SDS011;4950;46.042;14.472;2023-08-01T14:01:03;7.32;;;3.50;;
9821;SDS011;4950;46.042;14.472;2023-08-01T14:03:32;8.45;;;3.50;;
9821;SDS011;4950;46.042;14.472;2023-08-01T14:06:03;4.60;;;2.80;;
9821;SDS011;4950;46.042;14.472;2023-08-01T14:08:30;4.78;;;2.85;;
9821;SDS011;4950;46.042;14.472;2023-08-01T14:10:57;5.65;;;2.85;;
9821;SDS011;4950;46.042;14.472;2023-08-01T14:13:25;8.18;;;3.00;;
9821;SDS011;4950;46.042;14.472;2023-08-01T14:15:52;6.55;;;3.05;;
9821;SDS011;4950;46.042;14.472;2023-08-01T14:18:18;4.55;;;2.72;;
9821;SDS011;4950;46.042;14.472;2023-08-01T14:20:45;6.03;;;3.17;;
9821;SDS011;4950;46.042;14.472;2023-08-01T14:23:12;5.60;;;3.70;;
9821;SDS011;4950;46.042;14.472;2023-08-01T14:25:38;7.90;;;3.90;;
9821;SDS011;4950;46.042;14.472;2023-08-01T14:28:05;6.70;;;3.30;;
9821;SDS011;4950;46.042;14.472;2023-08-01T14:30:33;5.25;;;3.28;;
9821;SDS011;4950;46.042;14.472;2023-08-01T14:33:00;5.72;;;3.78;;
9821;SDS011;4950;46.042;14.472;2023-08-01T14:35:27;6.50;;;3.38;;
9821;SDS011;4950;46.042;14.472;2023-08-01T14:37:54;6.47;;;3.38;;
9821;SDS011;4950;46.042;14.472;2023-08-01T14:40:21;6.13;;;3.17;;
9821;SDS011;4950;46.042;14.472;2023-08-01T14:42:48;7.57;;;3.53;;
9821;SDS011;4950;46.042;14.472;2023-08-01T14:45:15;6.20;;;3.10;;
9821;SDS011;4950;46.042;14.472;2023-08-01T14:47:43;7.25;;;3.17;;
9821;SDS011;4950;46.042;14.472;2023-08-01T14:50:10;5.63;;;3.30;;
9821;SDS011;4950;46.042;14.472;2023-08-01T14:52:38;6.15;;;3.70;;
9821;SDS011;4950;46.042;14.472;2023-08-01T14:55:05;6.82;;;3.05;;
9821;SDS011;4950;46.042;14.472;2023-08-01T14:57:33;4.32;;;2.60;;
9821;SDS011;4950;46.042;14.472;2023-08-01T15:00:00;6.43;;;3.40;;